Guilden Sutton, United Kingdom
Current Conditions -  °F | °C
As of 7:20 AM on Thursday 18 Dec 2014 (Local Time) from EGNR Reporting Station
Rain Showers Rain Showers  
Wind Chill: 13°   Ceiling: 1500
Heat Index: 13°   Visibility: 6mi
Dew Point: 11°   Wind: 14mph
Humidity: 88%   Direction: 220°SW
Pressure: 29.65"   Gusts: 26mph
Location:  53.21°N, 2.83°W
Report Text: EGNR 180720Z 22012G23KT 190V270 9999 -SHRA BKN015 13/11 Q1004
Loading
Personal Weather Stations






























Interactive Weather Map New forecast layout! Learn more

10-Day Weather Forecast

Advertisements
Track Severe Weather on mobile